createdAt,value
2019-01-21T00:01:14.556Z,26.57
2019-01-21T00:03:57.333Z,27.70
2019-01-21T00:06:51.723Z,26.33
2019-01-21T00:09:24.910Z,25.60
2019-01-21T00:11:58.137Z,26.53
2019-01-21T00:14:40.547Z,27.63
2019-01-21T00:17:13.783Z,28.90
2019-01-21T00:19:47.023Z,26.73
2019-01-21T00:22:24.762Z,26.70
2019-01-21T00:25:08.198Z,26.30
2019-01-21T00:27:58.832Z,28.47
2019-01-21T00:30:31.974Z,28.03
2019-01-21T00:33:05.689Z,26.87
2019-01-21T00:35:38.819Z,26.47
2019-01-21T00:38:15.356Z,27.00
2019-01-21T00:40:59.926Z,26.13
2019-01-21T00:43:34.798Z,26.33
2019-01-21T00:46:12.820Z,26.77
2019-01-21T00:48:46.342Z,25.67
2019-01-21T00:51:19.867Z,26.27
2019-01-21T00:54:07.885Z,26.37
2019-01-21T00:56:41.073Z,25.97
2019-01-21T00:59:23.858Z,25.73
2019-01-21T01:02:13.802Z,25.70
2019-01-21T01:04:47.771Z,26.20
2019-01-21T01:07:21.281Z,25.23
2019-01-21T01:09:54.866Z,25.67
2019-01-21T01:12:28.397Z,26.80
2019-01-21T01:15:09.393Z,24.83
2019-01-21T01:17:52.850Z,25.00
2019-01-21T01:20:26.436Z,25.07
2019-01-21T01:23:01.925Z,25.53
2019-01-21T01:25:42.664Z,25.13
2019-01-21T01:28:24.932Z,27.10
2019-01-21T01:31:04.297Z,27.03
2019-01-21T01:33:38.510Z,25.53
2019-01-21T01:36:12.694Z,25.87
2019-01-21T01:38:56.531Z,26.77
2019-01-21T01:41:38.751Z,26.13
2019-01-21T01:44:13.047Z,25.07
2019-01-21T01:46:47.006Z,25.63
2019-01-21T01:49:20.525Z,24.53
2019-01-21T01:51:55.778Z,25.17
2019-01-21T01:54:29.293Z,26.17
2019-01-21T01:57:02.958Z,25.07
2019-01-21T01:59:37.824Z,25.93
2019-01-21T02:02:11.127Z,24.97
2019-01-21T02:04:43.490Z,25.43
2019-01-21T02:07:18.018Z,26.57
2019-01-21T02:09:51.213Z,26.10
2019-01-21T02:12:25.086Z,25.50
2019-01-21T02:15:00.262Z,25.53
2019-01-21T02:17:33.455Z,25.93
2019-01-21T02:20:18.007Z,24.70
2019-01-21T02:22:54.648Z,25.20
2019-01-21T02:25:45.684Z,25.80
2019-01-21T02:29:31.633Z,25.27
2019-01-21T02:32:57.553Z,23.73
2019-01-21T02:35:59.240Z,24.33
2019-01-21T02:39:06.293Z,24.07
2019-01-21T02:42:19.455Z,25.50
2019-01-21T02:45:10.900Z,26.40
2019-01-21T02:48:43.797Z,24.97
2019-01-21T02:51:59.635Z,24.87
2019-01-21T02:55:03.771Z,25.27
2019-01-21T02:58:09.376Z,25.10
2019-01-21T03:01:07.858Z,23.90
2019-01-21T03:04:22.244Z,25.60
2019-01-21T03:07:17.015Z,23.70
2019-01-21T03:10:02.297Z,25.83
2019-01-21T03:13:24.813Z,27.50
2019-01-21T03:16:46.652Z,36.27
2019-01-21T03:19:33.685Z,30.00
2019-01-21T03:22:57.197Z,26.50
2019-01-21T03:26:18.412Z,27.60
2019-01-21T03:29:23.784Z,27.97
2019-01-21T03:32:28.623Z,26.97
2019-01-21T03:35:29.928Z,27.37
2019-01-21T03:38:52.885Z,28.70
2019-01-21T03:41:52.675Z,29.17
2019-01-21T03:45:25.295Z,28.77
2019-01-21T03:48:30.158Z,29.93
2019-01-21T03:51:23.968Z,29.37
2019-01-21T03:54:10.729Z,31.20
2019-01-21T03:57:02.561Z,33.03
2019-01-21T04:00:18.876Z,32.10
2019-01-21T04:03:40.135Z,31.90
2019-01-21T04:06:50.184Z,30.40
2019-01-21T04:09:59.417Z,31.50
2019-01-21T04:12:59.825Z,33.63
2019-01-21T04:16:00.275Z,32.80
2019-01-21T04:19:06.013Z,32.50
2019-01-21T04:22:15.054Z,32.97
2019-01-21T04:25:06.759Z,33.43
2019-01-21T04:28:18.216Z,32.50
2019-01-21T04:31:48.211Z,32.30
2019-01-21T04:34:41.847Z,33.00
2019-01-21T04:37:44.349Z,32.27
2019-01-21T04:41:16.583Z,34.40
2019-01-21T04:44:52.214Z,32.63
2019-01-21T04:48:04.677Z,33.17
2019-01-21T04:51:03.413Z,35.10
2019-01-21T04:54:12.943Z,33.87
2019-01-21T04:57:14.251Z,33.83
2019-01-21T05:00:33.998Z,36.17
2019-01-21T05:03:50.233Z,34.93
2019-01-21T05:06:58.121Z,34.60
2019-01-21T05:10:10.367Z,37.07
2019-01-21T05:13:29.791Z,38.67
2019-01-21T05:16:32.171Z,37.77
2019-01-21T05:19:42.418Z,37.63
2019-01-21T05:23:07.358Z,38.40
2019-01-21T05:26:01.771Z,35.83
2019-01-21T05:28:58.925Z,36.77
2019-01-21T05:32:28.974Z,38.33
2019-01-21T05:35:37.323Z,39.27
2019-01-21T05:38:23.832Z,37.40
2019-01-21T05:41:31.170Z,37.80
2019-01-21T05:45:01.156Z,38.37
2019-01-21T05:48:01.665Z,36.70
2019-01-21T05:51:17.636Z,37.37
2019-01-21T05:54:29.446Z,37.33
2019-01-21T05:57:46.951Z,36.50
2019-01-21T06:00:36.015Z,36.63
2019-01-21T06:03:40.633Z,36.90
2019-01-21T06:07:12.343Z,36.67
2019-01-21T06:10:09.824Z,35.27
2019-01-21T06:13:31.301Z,34.00
2019-01-21T06:16:49.348Z,37.30
2019-01-21T06:19:54.190Z,35.03
2019-01-21T06:23:06.474Z,34.47
2019-01-21T06:26:34.820Z,33.97
2019-01-21T06:29:51.878Z,35.40
2019-01-21T06:32:48.309Z,34.63
2019-01-21T06:36:02.980Z,33.47
2019-01-21T06:39:20.459Z,34.53
2019-01-21T06:42:48.620Z,32.83
2019-01-21T06:45:48.347Z,35.00
2019-01-21T06:49:04.640Z,36.40
2019-01-21T06:52:03.846Z,36.30
2019-01-21T06:55:02.843Z,33.87
2019-01-21T06:58:29.854Z,31.83
2019-01-21T07:01:46.685Z,32.47
2019-01-21T07:04:57.028Z,33.00
2019-01-21T07:08:05.937Z,33.27
2019-01-21T07:11:20.371Z,32.23
2019-01-21T07:14:49.761Z,32.53
2019-01-21T07:18:20.304Z,32.53
2019-01-21T07:21:25.090Z,33.10
2019-01-21T07:24:22.951Z,31.17
2019-01-21T07:27:39.252Z,32.67
2019-01-21T07:30:57.686Z,32.27
2019-01-21T07:34:18.206Z,32.87
2019-01-21T07:37:16.801Z,32.23
2019-01-21T07:40:59.916Z,33.57
2019-01-21T07:43:52.251Z,34.93
2019-01-21T07:46:56.124Z,35.53
2019-01-21T07:50:11.001Z,32.43
2019-01-21T07:53:42.401Z,32.30
2019-01-21T07:56:52.732Z,33.97
2019-01-21T08:00:07.924Z,33.63
2019-01-21T08:03:14.651Z,34.33
2019-01-21T08:06:39.133Z,33.73
2019-01-21T08:10:01.270Z,34.40
2019-01-21T08:13:10.882Z,33.13
2019-01-21T08:16:34.671Z,33.97
2019-01-21T08:19:48.457Z,34.63
2019-01-21T08:23:19.994Z,36.00
2019-01-21T08:26:39.278Z,32.27
2019-01-21T08:29:24.486Z,34.23
2019-01-21T08:32:47.222Z,34.63
2019-01-21T08:36:10.334Z,33.87
2019-01-21T08:39:23.730Z,34.33
2019-01-21T08:42:11.190Z,33.60
2019-01-21T08:45:16.753Z,33.63
2019-01-21T08:48:22.216Z,33.67
2019-01-21T08:51:40.455Z,34.73
2019-01-21T08:54:35.113Z,32.07
2019-01-21T08:57:43.671Z,35.97
2019-01-21T09:00:44.631Z,35.70
2019-01-21T09:03:50.261Z,34.63
2019-01-21T09:07:04.823Z,33.93
2019-01-21T09:10:07.565Z,34.93
2019-01-21T09:13:43.269Z,36.17
2019-01-21T09:16:35.190Z,35.37
2019-01-21T09:19:44.176Z,36.23
2019-01-21T09:22:30.984Z,36.87
2019-01-21T09:25:42.541Z,34.27
2019-01-21T09:29:11.855Z,35.40
2019-01-21T09:32:16.527Z,35.43
2019-01-21T09:35:38.557Z,35.07
2019-01-21T09:38:45.437Z,37.90
2019-01-21T09:42:13.790Z,35.23
2019-01-21T09:45:33.857Z,35.93
2019-01-21T09:48:05.607Z,35.67
2019-01-21T09:50:40.385Z,36.63
2019-01-21T09:53:15.086Z,36.37
2019-01-21T09:55:58.317Z,36.03
2019-01-21T09:58:43.086Z,34.40
2019-01-21T10:01:16.829Z,34.77
2019-01-21T10:03:50.441Z,35.63
2019-01-21T10:06:30.339Z,34.37
2019-01-21T10:09:33.082Z,34.10
2019-01-21T10:12:59.294Z,33.53
2019-01-21T10:15:45.121Z,32.87
2019-01-21T10:19:26.134Z,31.03
2019-01-21T10:22:33.860Z,32.27
2019-01-21T10:25:57.172Z,30.57
2019-01-21T10:29:15.190Z,30.17
2019-01-21T10:32:41.604Z,31.17
2019-01-21T10:36:04.760Z,30.63
2019-01-21T10:39:21.429Z,30.70
2019-01-21T10:42:16.614Z,29.47
2019-01-21T10:45:40.411Z,30.93
2019-01-21T10:48:49.626Z,30.10
2019-01-21T10:51:52.753Z,29.47
2019-01-21T10:55:04.864Z,31.03
2019-01-21T10:58:04.615Z,31.93
2019-01-21T11:01:05.937Z,30.07
2019-01-21T11:04:15.294Z,30.27
2019-01-21T11:07:25.309Z,30.17
2019-01-21T11:10:18.028Z,30.30
2019-01-21T11:13:25.537Z,30.03
2019-01-21T11:16:13.638Z,29.43
2019-01-21T11:19:13.507Z,30.73
2019-01-21T11:22:22.762Z,30.50
2019-01-21T11:25:36.681Z,30.07
2019-01-21T11:28:45.309Z,30.00
2019-01-21T11:31:47.135Z,30.20
2019-01-21T11:35:09.549Z,30.37
2019-01-21T11:38:34.802Z,29.47
2019-01-21T11:41:21.833Z,30.07
2019-01-21T11:44:26.459Z,30.40
2019-01-21T11:47:48.962Z,29.40
2019-01-21T11:50:34.511Z,27.30
2019-01-21T11:53:45.937Z,29.07
2019-01-21T11:56:56.338Z,28.20
2019-01-21T12:00:02.258Z,28.23
2019-01-21T12:03:23.606Z,27.33
2019-01-21T12:06:11.754Z,28.13
2019-01-21T12:09:12.522Z,27.13
2019-01-21T12:12:06.809Z,28.50
2019-01-21T12:15:34.476Z,27.00
2019-01-21T12:19:00.663Z,25.93
2019-01-21T12:22:38.884Z,25.13
2019-01-21T12:25:39.868Z,24.90
2019-01-21T12:28:33.384Z,24.37
2019-01-21T12:32:02.047Z,24.60
2019-01-21T12:35:03.400Z,24.77
2019-01-21T12:38:07.384Z,24.30
2019-01-21T12:41:10.407Z,24.17
2019-01-21T12:44:20.894Z,25.07
2019-01-21T12:47:04.147Z,23.83
2019-01-21T12:50:14.540Z,25.53
2019-01-21T12:52:55.146Z,24.37
2019-01-21T12:56:29.206Z,23.90
2019-01-21T12:59:29.746Z,24.53
2019-01-21T13:02:18.600Z,26.43
2019-01-21T13:05:19.627Z,25.83
2019-01-21T13:08:28.978Z,26.63
2019-01-21T13:11:24.785Z,27.20
2019-01-21T13:14:57.993Z,25.73
2019-01-21T13:18:10.904Z,24.73
2019-01-21T13:21:36.310Z,25.57
2019-01-21T13:24:51.019Z,25.27
2019-01-21T13:28:12.851Z,26.33
2019-01-21T13:31:29.710Z,27.53
2019-01-21T13:34:23.187Z,25.53
2019-01-21T13:37:38.967Z,26.40
2019-01-21T13:40:53.460Z,26.10
2019-01-21T13:43:40.548Z,25.93
2019-01-21T13:46:30.900Z,26.60
2019-01-21T13:50:06.426Z,26.07
2019-01-21T13:53:26.438Z,25.53
2019-01-21T13:56:09.473Z,25.60
2019-01-21T13:59:07.914Z,25.20
2019-01-21T14:01:54.798Z,25.80
2019-01-21T14:05:32.921Z,25.80
2019-01-21T14:08:48.229Z,25.63
2019-01-21T14:12:05.238Z,25.63
2019-01-21T14:15:32.715Z,25.80
2019-01-21T14:18:45.590Z,24.77
2019-01-21T14:22:08.581Z,26.37
2019-01-21T14:26:03.560Z,26.33
2019-01-21T14:29:27.976Z,25.93
2019-01-21T14:32:56.774Z,24.43
2019-01-21T14:36:09.691Z,26.03
2019-01-21T14:39:16.610Z,25.43
2019-01-21T14:42:29.725Z,24.27
2019-01-21T14:45:47.382Z,25.63
2019-01-21T14:48:48.760Z,24.97
2019-01-21T14:52:04.190Z,26.27
2019-01-21T14:55:14.139Z,25.80
2019-01-21T14:58:20.179Z,27.10
2019-01-21T15:01:26.267Z,26.43
2019-01-21T15:04:34.313Z,26.93
2019-01-21T15:07:59.604Z,25.47
2019-01-21T15:10:58.172Z,26.33
2019-01-21T15:14:04.626Z,26.87
2019-01-21T15:17:24.044Z,26.30
2019-01-21T15:20:20.210Z,25.97
2019-01-21T15:23:33.093Z,26.97
2019-01-21T15:26:35.881Z,27.57
2019-01-21T15:29:37.862Z,25.73
2019-01-21T15:32:40.355Z,27.20
2019-01-21T15:35:39.583Z,26.03
2019-01-21T15:38:54.464Z,26.77
2019-01-21T15:41:48.092Z,27.40
2019-01-21T15:45:17.654Z,25.73
2019-01-21T15:48:15.777Z,27.87
2019-01-21T15:51:24.459Z,27.07
2019-01-21T15:54:27.708Z,26.83
2019-01-21T15:57:57.416Z,27.83
2019-01-21T16:01:15.519Z,26.70
2019-01-21T16:04:20.239Z,27.03
2019-01-21T16:07:18.764Z,26.53
2019-01-21T16:10:54.551Z,26.10
2019-01-21T16:14:03.075Z,27.43
2019-01-21T16:17:36.019Z,26.13
2019-01-21T16:20:22.364Z,25.83
2019-01-21T16:23:25.568Z,26.70
2019-01-21T16:26:21.996Z,26.43
2019-01-21T16:29:22.273Z,27.80
2019-01-21T16:32:22.265Z,26.30
2019-01-21T16:35:39.615Z,26.07
2019-01-21T16:38:34.461Z,27.17
2019-01-21T16:41:36.357Z,26.37
2019-01-21T16:44:10.781Z,24.70
2019-01-21T16:46:46.401Z,26.20
2019-01-21T16:49:24.157Z,25.23
2019-01-21T16:52:07.218Z,25.80
2019-01-21T16:54:40.717Z,26.03
2019-01-21T16:57:13.936Z,25.80
2019-01-21T17:00:02.618Z,24.93
2019-01-21T17:02:36.069Z,26.30
2019-01-21T17:05:18.778Z,26.77
2019-01-21T17:07:52.750Z,25.73
2019-01-21T17:10:43.497Z,25.80
2019-01-21T17:13:18.151Z,26.53
2019-01-21T17:16:00.545Z,25.80
2019-01-21T17:18:33.761Z,25.57
2019-01-21T17:21:06.993Z,26.73
2019-01-21T17:23:40.592Z,25.20
2019-01-21T17:26:14.667Z,25.90
2019-01-21T17:28:48.742Z,27.70
2019-01-21T17:31:21.967Z,27.27
2019-01-21T17:33:56.890Z,28.70
2019-01-21T17:36:30.096Z,27.20
2019-01-21T17:39:06.296Z,26.57
2019-01-21T17:41:52.266Z,28.27
2019-01-21T17:44:25.517Z,26.80
2019-01-21T17:46:59.580Z,26.27
2019-01-21T17:49:42.563Z,27.40
2019-01-21T17:52:16.703Z,27.00
2019-01-21T17:54:51.214Z,28.97
2019-01-21T17:57:34.599Z,28.53
2019-01-21T18:00:10.272Z,29.83
2019-01-21T18:02:44.677Z,29.63
2019-01-21T18:05:27.855Z,28.87
2019-01-21T18:08:01.004Z,29.83
2019-01-21T18:10:43.969Z,30.17
2019-01-21T18:13:17.193Z,28.50
2019-01-21T18:15:50.968Z,29.30
2019-01-21T18:18:24.216Z,29.23
2019-01-21T18:20:58.297Z,27.37
2019-01-21T18:23:32.200Z,28.03
2019-01-21T18:26:05.532Z,29.40
2019-01-21T18:28:49.496Z,27.43
2019-01-21T18:31:22.977Z,28.23
2019-01-21T18:34:04.938Z,26.67
2019-01-21T18:36:38.537Z,29.67
2019-01-21T18:39:14.820Z,29.03
2019-01-21T18:41:48.427Z,30.57
2019-01-21T18:44:21.621Z,29.73
2019-01-21T18:46:54.483Z,29.93
2019-01-21T18:49:28.467Z,28.80
2019-01-21T18:52:01.929Z,31.17
2019-01-21T18:54:37.663Z,29.83
2019-01-21T18:57:10.744Z,30.00
2019-01-21T18:59:47.697Z,30.97
2019-01-21T19:02:21.107Z,29.67
2019-01-21T19:04:54.401Z,28.53
2019-01-21T19:07:28.155Z,28.30
2019-01-21T19:10:02.651Z,29.97
2019-01-21T19:12:36.482Z,28.87
2019-01-21T19:15:12.967Z,28.47
2019-01-21T19:17:56.586Z,28.40
2019-01-21T19:20:38.777Z,27.70
2019-01-21T19:23:12.102Z,26.77
2019-01-21T19:25:45.269Z,28.07
2019-01-21T19:28:27.660Z,28.70
2019-01-21T19:31:10.511Z,28.23
2019-01-21T19:33:43.864Z,27.90
2019-01-21T19:36:17.440Z,28.37
2019-01-21T19:38:52.241Z,26.87
2019-01-21T19:41:27.323Z,26.63
2019-01-21T19:44:10.717Z,27.27
2019-01-21T19:46:52.776Z,26.77
2019-01-21T19:49:26.262Z,27.20
2019-01-21T19:52:00.433Z,28.60
2019-01-21T19:54:35.007Z,29.23
2019-01-21T19:57:09.556Z,27.80
2019-01-21T19:59:52.115Z,29.67
2019-01-21T20:02:25.288Z,29.33
2019-01-21T20:04:58.700Z,29.47
2019-01-21T20:07:31.892Z,29.00
2019-01-21T20:10:06.524Z,28.50
2019-01-21T20:12:40.439Z,29.17
2019-01-21T20:15:22.847Z,30.43
2019-01-21T20:17:56.627Z,29.80
2019-01-21T20:20:33.008Z,28.93
2019-01-21T20:23:06.173Z,29.70
2019-01-21T20:25:37.980Z,31.80
2019-01-21T20:28:12.219Z,29.33
2019-01-21T20:30:46.146Z,28.60
2019-01-21T20:33:22.351Z,28.57
2019-01-21T20:35:55.802Z,29.13
2019-01-21T20:38:28.943Z,28.47
2019-01-21T20:41:11.129Z,29.33
2019-01-21T20:43:45.187Z,27.73
2019-01-21T20:46:18.306Z,29.30
2019-01-21T20:49:01.681Z,29.43
2019-01-21T20:51:35.436Z,29.77
2019-01-21T20:54:09.212Z,30.87
2019-01-21T20:56:41.283Z,27.73
2019-01-21T20:59:14.415Z,26.87
2019-01-21T21:01:47.948Z,27.60
2019-01-21T21:04:21.575Z,28.57
2019-01-21T21:06:54.836Z,27.53
2019-01-21T21:09:28.846Z,26.70
2019-01-21T21:12:04.202Z,27.93
2019-01-21T21:14:37.776Z,27.73
2019-01-21T21:17:11.936Z,27.50
2019-01-21T21:19:55.018Z,25.77
2019-01-21T21:22:37.105Z,27.73
2019-01-21T21:25:12.668Z,27.30
2019-01-21T21:27:46.546Z,26.77
2019-01-21T21:30:31.208Z,26.33
2019-01-21T21:33:13.487Z,27.17
2019-01-21T21:35:47.441Z,26.80
2019-01-21T21:38:20.658Z,27.30
2019-01-21T21:40:55.720Z,26.93
2019-01-21T21:43:29.385Z,28.60
2019-01-21T21:46:04.000Z,29.00
2019-01-21T21:48:38.397Z,27.07
2019-01-21T21:51:11.678Z,27.77
2019-01-21T21:53:46.739Z,27.87
2019-01-21T21:56:19.904Z,27.17
2019-01-21T21:59:05.824Z,28.00
2019-01-21T22:01:48.395Z,28.27
2019-01-21T22:04:22.570Z,27.40
2019-01-21T22:07:05.030Z,27.40
2019-01-21T22:09:40.012Z,26.50
2019-01-21T22:12:13.255Z,26.03
2019-01-21T22:14:46.835Z,27.07
2019-01-21T22:17:21.512Z,26.03
2019-01-21T22:20:03.650Z,25.97
2019-01-21T22:22:37.007Z,25.87
2019-01-21T22:25:10.266Z,28.27
2019-01-21T22:27:44.274Z,26.93
2019-01-21T22:30:22.779Z,26.03
2019-01-21T22:32:55.816Z,26.13
2019-01-21T22:35:30.040Z,26.27
2019-01-21T22:38:03.531Z,26.03
2019-01-21T22:40:36.833Z,27.10
2019-01-21T22:43:10.329Z,26.10
2019-01-21T22:45:43.855Z,27.00
2019-01-21T22:48:17.057Z,25.77
2019-01-21T22:50:59.163Z,26.67
2019-01-21T22:53:42.566Z,25.70
2019-01-21T22:56:24.981Z,25.33
2019-01-21T22:58:58.490Z,25.93
2019-01-21T23:01:33.218Z,25.83
2019-01-21T23:04:06.758Z,27.83
2019-01-21T23:06:40.381Z,27.23
2019-01-21T23:09:14.003Z,27.37
2019-01-21T23:11:47.542Z,27.57
2019-01-21T23:14:21.481Z,28.00
2019-01-21T23:16:55.014Z,27.23
2019-01-21T23:19:28.657Z,28.60
2019-01-21T23:22:03.875Z,26.27
2019-01-21T23:24:37.007Z,26.40
2019-01-21T23:27:10.688Z,27.60
2019-01-21T23:29:44.201Z,27.57
2019-01-21T23:32:18.016Z,27.43
2019-01-21T23:35:01.460Z,26.97
2019-01-21T23:37:36.174Z,28.80
2019-01-21T23:40:10.448Z,27.00
2019-01-21T23:42:53.038Z,26.97
2019-01-21T23:45:26.762Z,27.43
2019-01-21T23:48:00.608Z,26.90
2019-01-21T23:50:43.869Z,28.63
2019-01-21T23:53:17.290Z,27.47
2019-01-21T23:55:50.412Z,28.03
2019-01-21T23:58:24.607Z,27.17
